This is the latest recevied weather packets stored in our database for station/object OE-11099. If no packets are shown the sender has not sent any weather packets the latest 10 day(s).
| Time | Temp. | Humidity | Pressure | Rain* | Wind** | Luminosity | Snow |
|---|---|---|---|---|---|---|---|
| 1787708479 | 16.67° C | 79% | 1016.1 hPa | 0 mm | - | 0 W/m² | - |
| 1787708106 | 16.67° C | 80% | 1016.1 hPa | 0 mm | - | 0 W/m² | - |
| 1787707506 | 16.67° C | 80% | 1016 hPa | 0 mm | - | 0 W/m² | - |
| 1787706678 | 16.67° C | 78% | 1015.8 hPa | 0 mm | - | 0 W/m² | - |
| 1787706306 | 16.67° C | 81% | 1015.9 hPa | 0 mm | - | 0 W/m² | - |
| 1787705706 | 16.67° C | 81% | 1016 hPa | 0 mm | - | 0 W/m² | - |
| 1787704878 | 16.67° C | 81% | 1016.1 hPa | 0 mm | - | 0 W/m² | - |
| 1787704506 | 16.67° C | 81% | 1016 hPa | 0 mm | - | 0 W/m² | - |
| 1787703906 | 16.67° C | 80% | 1016 hPa | 0 mm | - | 0 W/m² | - |
| 1787703078 | 16.67° C | 80% | 1016 hPa | 0 mm | - | 0 W/m² | - |
| 1787702706 | 16.67° C | 80% | 1016 hPa | 0 mm | - | 0 W/m² | - |
| 1787702106 | 17.22° C | 81% | 1016 hPa | 0 mm | - | 0 W/m² | - |
| 1787701278 | 17.22° C | 80% | 1015.7 hPa | 0 mm | - | 0 W/m² | - |
| 1787700906 | 17.78° C | 80% | 1015.7 hPa | 0 mm | - | 0 W/m² | - |
| 1787700306 | 17.78° C | 76% | 1015.5 hPa | 0 mm | - | 0 W/m² | - |
| 1787699706 | 17.22° C | 81% | 1015.6 hPa | 0 mm | - | 0 W/m² | - |
| 1787699105 | 17.78° C | 80% | 1015.6 hPa | 0 mm | - | 0 W/m² | - |
| 1787698506 | 18.33° C | 76% | 1015.5 hPa | 0 mm | - | 0 W/m² | - |
| 1787697680 | 17.78° C | 78% | 1015.6 hPa | 0 mm | - | 0 W/m² | - |
| 1787697306 | 18.33° C | 78% | 1015.5 hPa | 0 mm | - | 0 W/m² | - |
| 1787696706 | 17.78° C | 80% | 1015.4 hPa | 0 mm | - | 0 W/m² | - |
| 1787695879 | 18.33° C | 78% | 1015.4 hPa | 0 mm | - | 0 W/m² | - |
| 1787695506 | 18.33° C | 79% | 1015.4 hPa | 0 mm | - | 0 W/m² | - |
| 1787694905 | 18.33° C | 78% | 1015.3 hPa | 0 mm | - | 0 W/m² | - |
| 1787694079 | 18.33° C | 77% | 1015.2 hPa | 0 mm | - | 0 W/m² | - |
* Rain latest hour (hover to see other rain measurements)
** Current wind speed in m/s (hover to see current wind gust speed)